sensor_id;sensor_type;location;lat;lon;timestamp;pressure;altitude;pressure_sealevel;temperature;humidity
4598;BME280;62772;48.646;8.906;2024-02-26T00:03:13;94410.34;;;2.20;100.00
4598;BME280;62772;48.646;8.906;2024-02-26T00:08:13;94405.44;;;2.05;100.00
4598;BME280;62772;48.646;8.906;2024-02-26T00:13:14;94398.47;;;2.31;100.00
4598;BME280;62772;48.646;8.906;2024-02-26T00:18:14;94399.59;;;2.48;100.00
4598;BME280;62772;48.646;8.906;2024-02-26T00:23:15;94399.66;;;2.65;100.00
4598;BME280;62772;48.646;8.906;2024-02-26T00:28:16;94391.69;;;2.39;100.00
4598;BME280;62772;48.646;8.906;2024-02-26T00:33:16;94394.47;;;2.43;100.00
4598;BME280;62772;48.646;8.906;2024-02-26T00:38:20;94385.38;;;2.17;100.00
4598;BME280;62772;48.646;8.906;2024-02-26T00:43:20;94378.50;;;2.48;100.00
4598;BME280;62772;48.646;8.906;2024-02-26T00:48:21;94362.00;;;2.73;100.00
4598;BME280;62772;48.646;8.906;2024-02-26T00:53:21;94366.03;;;2.80;100.00
4598;BME280;62772;48.646;8.906;2024-02-26T00:58:22;94358.63;;;2.99;100.00
4598;BME280;62772;48.646;8.906;2024-02-26T01:03:22;94366.69;;;2.94;100.00
4598;BME280;62772;48.646;8.906;2024-02-26T01:08:23;94398.63;;;2.93;100.00
4598;BME280;62772;48.646;8.906;2024-02-26T01:13:23;94386.81;;;2.81;100.00
4598;BME280;62772;48.646;8.906;2024-02-26T01:18:24;94400.50;;;2.83;100.00
4598;BME280;62772;48.646;8.906;2024-02-26T01:23:24;94399.72;;;2.92;100.00
4598;BME280;62772;48.646;8.906;2024-02-26T01:28:25;94403.91;;;2.93;100.00
4598;BME280;62772;48.646;8.906;2024-02-26T01:33:26;94393.53;;;3.05;100.00
4598;BME280;62772;48.646;8.906;2024-02-26T01:38:26;94413.72;;;3.18;100.00
4598;BME280;62772;48.646;8.906;2024-02-26T01:43:27;94431.44;;;3.44;100.00
4598;BME280;62772;48.646;8.906;2024-02-26T01:48:28;94431.72;;;3.34;100.00
4598;BME280;62772;48.646;8.906;2024-02-26T01:53:28;94429.72;;;3.39;100.00
4598;BME280;62772;48.646;8.906;2024-02-26T01:58:30;94426.47;;;3.69;100.00
4598;BME280;62772;48.646;8.906;2024-02-26T02:03:31;94424.75;;;3.90;100.00
4598;BME280;62772;48.646;8.906;2024-02-26T02:08:31;94429.44;;;3.58;100.00
4598;BME280;62772;48.646;8.906;2024-02-26T02:13:32;94428.81;;;3.61;100.00
4598;BME280;62772;48.646;8.906;2024-02-26T02:18:33;94435.94;;;3.61;100.00
4598;BME280;62772;48.646;8.906;2024-02-26T02:23:33;94439.84;;;3.55;100.00
4598;BME280;62772;48.646;8.906;2024-02-26T02:28:34;94420.25;;;3.65;100.00
4598;BME280;62772;48.646;8.906;2024-02-26T02:33:35;94420.88;;;3.44;100.00
4598;BME280;62772;48.646;8.906;2024-02-26T02:38:37;94403.19;;;3.44;100.00
4598;BME280;62772;48.646;8.906;2024-02-26T02:43:37;94408.00;;;3.60;100.00
4598;BME280;62772;48.646;8.906;2024-02-26T02:48:38;94412.31;;;3.73;100.00
4598;BME280;62772;48.646;8.906;2024-02-26T02:53:38;94412.94;;;3.79;100.00
4598;BME280;62772;48.646;8.906;2024-02-26T02:58:39;94426.16;;;3.70;100.00
4598;BME280;62772;48.646;8.906;2024-02-26T03:03:39;94419.78;;;3.54;100.00
4598;BME280;62772;48.646;8.906;2024-02-26T03:08:39;94413.59;;;3.58;100.00
4598;BME280;62772;48.646;8.906;2024-02-26T03:13:42;94418.25;;;3.61;100.00
4598;BME280;62772;48.646;8.906;2024-02-26T03:18:42;94415.78;;;3.39;100.00
4598;BME280;62772;48.646;8.906;2024-02-26T03:23:43;94390.63;;;3.33;100.00
4598;BME280;62772;48.646;8.906;2024-02-26T03:28:43;94372.59;;;3.43;100.00
4598;BME280;62772;48.646;8.906;2024-02-26T03:33:44;94372.59;;;3.35;100.00
4598;BME280;62772;48.646;8.906;2024-02-26T03:38:44;94367.00;;;3.45;100.00
4598;BME280;62772;48.646;8.906;2024-02-26T03:43:45;94365.47;;;3.35;100.00
4598;BME280;62772;48.646;8.906;2024-02-26T03:48:45;94365.47;;;3.26;100.00
4598;BME280;62772;48.646;8.906;2024-02-26T03:53:46;94366.38;;;3.31;100.00
4598;BME280;62772;48.646;8.906;2024-02-26T03:58:46;94372.59;;;3.52;100.00
4598;BME280;62772;48.646;8.906;2024-02-26T04:03:47;94365.47;;;3.44;100.00
4598;BME280;62772;48.646;8.906;2024-02-26T04:08:47;94357.72;;;3.30;100.00
4598;BME280;62772;48.646;8.906;2024-02-26T04:13:48;94363.63;;;3.36;100.00
4598;BME280;62772;48.646;8.906;2024-02-26T04:18:52;94366.25;;;3.53;100.00
4598;BME280;62772;48.646;8.906;2024-02-26T04:23:53;94362.22;;;3.47;100.00
4598;BME280;62772;48.646;8.906;2024-02-26T04:28:57;94372.44;;;3.66;100.00
4598;BME280;62772;48.646;8.906;2024-02-26T04:33:57;94371.53;;;3.36;100.00
4598;BME280;62772;48.646;8.906;2024-02-26T04:38:57;94372.28;;;3.27;100.00
4598;BME280;62772;48.646;8.906;2024-02-26T04:43:58;94371.53;;;3.27;100.00
4598;BME280;62772;48.646;8.906;2024-02-26T04:48:59;94378.34;;;3.28;100.00
4598;BME280;62772;48.646;8.906;2024-02-26T04:53:59;94385.94;;;3.21;100.00
4598;BME280;62772;48.646;8.906;2024-02-26T04:58:59;94392.00;;;3.21;100.00
4598;BME280;62772;48.646;8.906;2024-02-26T05:04:00;94396.97;;;3.14;100.00
4598;BME280;62772;48.646;8.906;2024-02-26T05:09:01;94395.72;;;3.20;100.00
4598;BME280;62772;48.646;8.906;2024-02-26T05:14:01;94424.13;;;3.32;100.00
4598;BME280;62772;48.646;8.906;2024-02-26T05:19:02;94430.03;;;3.73;100.00
4598;BME280;62772;48.646;8.906;2024-02-26T05:24:03;94441.53;;;3.86;100.00
4598;BME280;62772;48.646;8.906;2024-02-26T05:29:04;94436.88;;;3.83;100.00
4598;BME280;62772;48.646;8.906;2024-02-26T05:34:04;94434.38;;;3.77;100.00
4598;BME280;62772;48.646;8.906;2024-02-26T05:39:05;94437.19;;;3.63;100.00
4598;BME280;62772;48.646;8.906;2024-02-26T05:44:05;94426.94;;;3.44;100.00
4598;BME280;62772;48.646;8.906;2024-02-26T05:49:06;94417.63;;;3.38;100.00
4598;BME280;62772;48.646;8.906;2024-02-26T05:54:07;94426.00;;;3.49;100.00
4598;BME280;62772;48.646;8.906;2024-02-26T05:59:08;94428.63;;;3.32;100.00
4598;BME280;62772;48.646;8.906;2024-02-26T06:04:08;94433.28;;;3.35;100.00
4598;BME280;62772;48.646;8.906;2024-02-26T06:09:09;94437.94;;;3.81;100.00
4598;BME280;62772;48.646;8.906;2024-02-26T06:14:11;94449.75;;;3.58;100.00
4598;BME280;62772;48.646;8.906;2024-02-26T06:19:13;94452.72;;;3.65;100.00
4598;BME280;62772;48.646;8.906;2024-02-26T06:24:13;94453.03;;;3.55;100.00
4598;BME280;62772;48.646;8.906;2024-02-26T06:29:14;94465.91;;;3.56;100.00
4598;BME280;62772;48.646;8.906;2024-02-26T06:34:15;94472.09;;;3.34;100.00
4598;BME280;62772;48.646;8.906;2024-02-26T06:39:15;94482.47;;;3.22;100.00
4598;BME280;62772;48.646;8.906;2024-02-26T06:44:16;94473.50;;;3.49;100.00
4598;BME280;62772;48.646;8.906;2024-02-26T06:49:16;94489.03;;;3.51;100.00
4598;BME280;62772;48.646;8.906;2024-02-26T06:54:17;94493.06;;;3.39;100.00
4598;BME280;62772;48.646;8.906;2024-02-26T06:59:17;94495.53;;;3.44;100.00
4598;BME280;62772;48.646;8.906;2024-02-26T07:04:20;94504.56;;;3.52;100.00
4598;BME280;62772;48.646;8.906;2024-02-26T07:09:20;94503.50;;;3.71;100.00
4598;BME280;62772;48.646;8.906;2024-02-26T07:14:21;94505.97;;;3.58;100.00
4598;BME280;62772;48.646;8.906;2024-02-26T07:19:22;94502.22;;;3.51;100.00
4598;BME280;62772;48.646;8.906;2024-02-26T07:24:22;94502.41;;;3.63;100.00
4598;BME280;62772;48.646;8.906;2024-02-26T07:29:23;94499.59;;;3.94;100.00
4598;BME280;62772;48.646;8.906;2024-02-26T07:34:23;94487.97;;;3.78;100.00
4598;BME280;62772;48.646;8.906;2024-02-26T07:39:27;94495.41;;;3.67;100.00
4598;BME280;62772;48.646;8.906;2024-02-26T07:44:28;94504.28;;;3.71;100.00
4598;BME280;62772;48.646;8.906;2024-02-26T07:49:28;94515.16;;;3.87;100.00
4598;BME280;62772;48.646;8.906;2024-02-26T07:54:29;94514.69;;;4.03;100.00
4598;BME280;62772;48.646;8.906;2024-02-26T07:59:29;94519.47;;;4.44;100.00
4598;BME280;62772;48.646;8.906;2024-02-26T08:04:30;94514.53;;;4.08;100.00
4598;BME280;62772;48.646;8.906;2024-02-26T08:09:31;94516.53;;;4.02;100.00
4598;BME280;62772;48.646;8.906;2024-02-26T08:14:31;94507.81;;;4.28;100.00
4598;BME280;62772;48.646;8.906;2024-02-26T08:19:33;94508.09;;;4.44;100.00
4598;BME280;62772;48.646;8.906;2024-02-26T08:24:35;94507.09;;;4.66;100.00
4598;BME280;62772;48.646;8.906;2024-02-26T08:29:36;94522.81;;;4.71;100.00
4598;BME280;62772;48.646;8.906;2024-02-26T08:34:36;94520.50;;;4.61;100.00
4598;BME280;62772;48.646;8.906;2024-02-26T08:39:37;94526.66;;;4.82;100.00
4598;BME280;62772;48.646;8.906;2024-02-26T08:44:38;94531.84;;;4.70;100.00
4598;BME280;62772;48.646;8.906;2024-02-26T08:49:43;94528.41;;;4.69;100.00
4598;BME280;62772;48.646;8.906;2024-02-26T08:54:44;94538.53;;;4.67;100.00
4598;BME280;62772;48.646;8.906;2024-02-26T08:59:44;94542.56;;;4.73;100.00
4598;BME280;62772;48.646;8.906;2024-02-26T09:04:45;94547.66;;;4.87;100.00
4598;BME280;62772;48.646;8.906;2024-02-26T09:09:45;94539.47;;;5.10;100.00
4598;BME280;62772;48.646;8.906;2024-02-26T09:14:46;94543.81;;;5.15;100.00
4598;BME280;62772;48.646;8.906;2024-02-26T09:19:46;94536.28;;;5.25;100.00
4598;BME280;62772;48.646;8.906;2024-02-26T09:24:46;94549.00;;;5.02;100.00
4598;BME280;62772;48.646;8.906;2024-02-26T09:29:47;94554.44;;;5.06;100.00
4598;BME280;62772;48.646;8.906;2024-02-26T09:34:47;94536.75;;;5.27;100.00
4598;BME280;62772;48.646;8.906;2024-02-26T09:39:48;94531.56;;;5.40;100.00
4598;BME280;62772;48.646;8.906;2024-02-26T09:44:51;94542.38;;;5.56;100.00
4598;BME280;62772;48.646;8.906;2024-02-26T09:49:56;94553.03;;;5.68;100.00
4598;BME280;62772;48.646;8.906;2024-02-26T09:54:57;94560.94;;;5.77;100.00
4598;BME280;62772;48.646;8.906;2024-02-26T09:59:59;94565.50;;;5.97;100.00
4598;BME280;62772;48.646;8.906;2024-02-26T10:05:07;94566.84;;;6.04;100.00
4598;BME280;62772;48.646;8.906;2024-02-26T10:10:10;94571.25;;;6.21;100.00
4598;BME280;62772;48.646;8.906;2024-02-26T10:15:10;94578.81;;;6.31;100.00
4598;BME280;62772;48.646;8.906;2024-02-26T10:20:15;94562.31;;;6.46;100.00
4598;BME280;62772;48.646;8.906;2024-02-26T10:25:16;94570.78;;;6.40;100.00
4598;BME280;62772;48.646;8.906;2024-02-26T10:30:21;94580.19;;;6.70;100.00
4598;BME280;62772;48.646;8.906;2024-02-26T10:35:22;94568.50;;;6.50;100.00
4598;BME280;62772;48.646;8.906;2024-02-26T10:40:23;94576.44;;;6.84;100.00
4598;BME280;62772;48.646;8.906;2024-02-26T10:45:24;94587.44;;;6.95;100.00
4598;BME280;62772;48.646;8.906;2024-02-26T10:50:24;94589.88;;;7.00;100.00
4598;BME280;62772;48.646;8.906;2024-02-26T10:55:25;94603.31;;;7.28;100.00
4598;BME280;62772;48.646;8.906;2024-02-26T11:00:26;94603.84;;;7.21;100.00
4598;BME280;62772;48.646;8.906;2024-02-26T11:05:29;94600.56;;;7.37;100.00
4598;BME280;62772;48.646;8.906;2024-02-26T11:10:30;94600.66;;;7.65;100.00
4598;BME280;62772;48.646;8.906;2024-02-26T11:15:32;94597.56;;;7.75;100.00
4598;BME280;62772;48.646;8.906;2024-02-26T11:20:34;94610.53;;;7.89;100.00
4598;BME280;62772;48.646;8.906;2024-02-26T11:25:38;94615.38;;;7.87;100.00
4598;BME280;62772;48.646;8.906;2024-02-26T11:30:45;94608.16;;;8.12;100.00
4598;BME280;62772;48.646;8.906;2024-02-26T11:35:46;94613.44;;;8.25;100.00
4598;BME280;62772;48.646;8.906;2024-02-26T11:40:48;94613.66;;;8.32;100.00
4598;BME280;62772;48.646;8.906;2024-02-26T11:45:51;94616.31;;;8.44;100.00
4598;BME280;62772;48.646;8.906;2024-02-26T11:50:54;94616.69;;;8.59;100.00
4598;BME280;62772;48.646;8.906;2024-02-26T12:01:44;94635.56;;;8.53;100.00
4598;BME280;62772;48.646;8.906;2024-02-26T12:06:54;94636.25;;;8.50;100.00
4598;BME280;62772;48.646;8.906;2024-02-26T12:11:55;94636.56;;;8.61;100.00
4598;BME280;62772;48.646;8.906;2024-02-26T12:16:56;94637.81;;;8.80;100.00
4598;BME280;62772;48.646;8.906;2024-02-26T12:21:58;94632.16;;;8.81;100.00
4598;BME280;62772;48.646;8.906;2024-02-26T12:26:58;94636.22;;;8.91;100.00
4598;BME280;62772;48.646;8.906;2024-02-26T12:31:59;94628.66;;;8.93;100.00
4598;BME280;62772;48.646;8.906;2024-02-26T12:37:00;94618.38;;;9.07;100.00
4598;BME280;62772;48.646;8.906;2024-02-26T12:42:01;94626.72;;;9.06;100.00
4598;BME280;62772;48.646;8.906;2024-02-26T12:47:03;94621.84;;;9.24;100.00
4598;BME280;62772;48.646;8.906;2024-02-26T12:52:05;94624.34;;;9.33;100.00
4598;BME280;62772;48.646;8.906;2024-02-26T12:57:06;94639.72;;;9.39;100.00
4598;BME280;62772;48.646;8.906;2024-02-26T13:02:08;94637.06;;;9.55;100.00
4598;BME280;62772;48.646;8.906;2024-02-26T13:07:09;94642.47;;;9.59;100.00
4598;BME280;62772;48.646;8.906;2024-02-26T13:12:10;94639.31;;;9.69;100.00
4598;BME280;62772;48.646;8.906;2024-02-26T13:17:11;94640.34;;;9.80;100.00
4598;BME280;62772;48.646;8.906;2024-02-26T13:22:12;94642.81;;;9.89;100.00
4598;BME280;62772;48.646;8.906;2024-02-26T13:27:12;94645.59;;;9.77;100.00
4598;BME280;62772;48.646;8.906;2024-02-26T13:32:21;94642.47;;;9.91;100.00
4598;BME280;62772;48.646;8.906;2024-02-26T13:37:21;94653.06;;;9.87;100.00
4598;BME280;62772;48.646;8.906;2024-02-26T13:42:21;94659.88;;;9.85;100.00
4598;BME280;62772;48.646;8.906;2024-02-26T13:47:22;94667.25;;;9.91;100.00
4598;BME280;62772;48.646;8.906;2024-02-26T13:52:22;94658.19;;;10.12;100.00
4598;BME280;62772;48.646;8.906;2024-02-26T13:57:23;94661.91;;;10.07;100.00
4598;BME280;62772;48.646;8.906;2024-02-26T14:02:23;94662.06;;;10.14;100.00
4598;BME280;62772;48.646;8.906;2024-02-26T14:07:24;94651.81;;;10.32;100.00
4598;BME280;62772;48.646;8.906;2024-02-26T14:12:24;94662.06;;;10.14;100.00
4598;BME280;62772;48.646;8.906;2024-02-26T14:17:25;94657.22;;;10.36;100.00
4598;BME280;62772;48.646;8.906;2024-02-26T14:22:25;94653.00;;;10.35;100.00
4598;BME280;62772;48.646;8.906;2024-02-26T14:27:30;94654.22;;;10.38;100.00
4598;BME280;62772;48.646;8.906;2024-02-26T14:32:31;94647.84;;;10.42;100.00
4598;BME280;62772;48.646;8.906;2024-02-26T14:37:36;94645.59;;;10.28;100.00
4598;BME280;62772;48.646;8.906;2024-02-26T14:42:37;94657.22;;;10.36;100.00
4598;BME280;62772;48.646;8.906;2024-02-26T14:47:38;94662.16;;;10.34;100.00
4598;BME280;62772;48.646;8.906;2024-02-26T14:52:38;94656.09;;;10.37;100.00
4598;BME280;62772;48.646;8.906;2024-02-26T14:57:39;94663.06;;;10.42;100.00
4598;BME280;62772;48.646;8.906;2024-02-26T15:02:39;94674.69;;;10.33;100.00
4598;BME280;62772;48.646;8.906;2024-02-26T15:07:39;94675.91;;;10.36;100.00
4598;BME280;62772;48.646;8.906;2024-02-26T15:12:40;94681.31;;;10.40;100.00
4598;BME280;62772;48.646;8.906;2024-02-26T15:17:40;94674.88;;;10.41;100.00
4598;BME280;62772;48.646;8.906;2024-02-26T15:22:41;94673.66;;;10.38;100.00
4598;BME280;62772;48.646;8.906;2024-02-26T15:27:42;94669.88;;;10.39;100.00
4598;BME280;62772;48.646;8.906;2024-02-26T15:32:42;94674.78;;;10.37;100.00
4598;BME280;62772;48.646;8.906;2024-02-26T15:37:43;94676.66;;;10.37;100.00
4598;BME280;62772;48.646;8.906;2024-02-26T15:42:45;94677.81;;;10.36;100.00
4598;BME280;62772;48.646;8.906;2024-02-26T15:47:46;94675.72;;;10.29;100.00
4598;BME280;62772;48.646;8.906;2024-02-26T15:52:47;94676.84;;;10.28;100.00
4598;BME280;62772;48.646;8.906;2024-02-26T15:57:48;94688.66;;;10.11;100.00
4598;BME280;62772;48.646;8.906;2024-02-26T16:02:48;94693.91;;;10.07;100.00
4598;BME280;62772;48.646;8.906;2024-02-26T16:07:52;94705.09;;;10.13;100.00
4598;BME280;62772;48.646;8.906;2024-02-26T16:12:57;94710.94;;;10.03;100.00
4598;BME280;62772;48.646;8.906;2024-02-26T16:17:59;94723.34;;;9.95;100.00
4598;BME280;62772;48.646;8.906;2024-02-26T16:23:00;94730.66;;;9.98;100.00
4598;BME280;62772;48.646;8.906;2024-02-26T16:28:05;94745.69;;;9.90;100.00
4598;BME280;62772;48.646;8.906;2024-02-26T16:33:05;94755.41;;;9.83;100.00
4598;BME280;62772;48.646;8.906;2024-02-26T16:38:06;94753.19;;;9.85;100.00
4598;BME280;62772;48.646;8.906;2024-02-26T16:43:06;94762.63;;;9.82;100.00
4598;BME280;62772;48.646;8.906;2024-02-26T16:48:07;94769.75;;;9.78;100.00
4598;BME280;62772;48.646;8.906;2024-02-26T16:53:07;94766.25;;;9.74;100.00
4598;BME280;62772;48.646;8.906;2024-02-26T16:58:08;94761.13;;;9.69;100.00
4598;BME280;62772;48.646;8.906;2024-02-26T17:03:09;94778.75;;;9.57;100.00
4598;BME280;62772;48.646;8.906;2024-02-26T17:08:09;94792.19;;;9.61;100.00
4598;BME280;62772;48.646;8.906;2024-02-26T17:13:11;94804.84;;;9.64;100.00
4598;BME280;62772;48.646;8.906;2024-02-26T17:18:13;94812.72;;;9.60;100.00
4598;BME280;62772;48.646;8.906;2024-02-26T17:23:14;94815.88;;;9.50;100.00
4598;BME280;62772;48.646;8.906;2024-02-26T17:28:14;94819.56;;;9.46;100.00
4598;BME280;62772;48.646;8.906;2024-02-26T17:33:15;94826.72;;;9.29;100.00
4598;BME280;62772;48.646;8.906;2024-02-26T17:38:15;94833.00;;;9.37;100.00
4598;BME280;62772;48.646;8.906;2024-02-26T17:43:17;94846.16;;;9.17;100.00
4598;BME280;62772;48.646;8.906;2024-02-26T17:48:18;94850.16;;;9.11;100.00
4598;BME280;62772;48.646;8.906;2024-02-26T17:53:19;94870.91;;;9.18;100.00
4598;BME280;62772;48.646;8.906;2024-02-26T17:58:22;94874.69;;;9.29;100.00
4598;BME280;62772;48.646;8.906;2024-02-26T18:03:22;94879.78;;;9.22;100.00
4598;BME280;62772;48.646;8.906;2024-02-26T18:08:40;94884.00;;;9.23;100.00
4598;BME280;62772;48.646;8.906;2024-02-26T18:13:41;94893.13;;;9.10;100.00
4598;BME280;62772;48.646;8.906;2024-02-26T18:18:44;94903.22;;;9.16;100.00
4598;BME280;62772;48.646;8.906;2024-02-26T18:23:46;94909.66;;;9.15;100.00
4598;BME280;62772;48.646;8.906;2024-02-26T18:28:48;94923.09;;;8.94;100.00
4598;BME280;62772;48.646;8.906;2024-02-26T18:33:48;94926.41;;;8.79;100.00
4598;BME280;62772;48.646;8.906;2024-02-26T18:38:49;94925.28;;;8.92;100.00
4598;BME280;62772;48.646;8.906;2024-02-26T18:43:51;94928.63;;;8.89;100.00
4598;BME280;62772;48.646;8.906;2024-02-26T18:48:52;94934.84;;;9.05;100.00
4598;BME280;62772;48.646;8.906;2024-02-26T18:53:53;94935.75;;;8.97;100.00
4598;BME280;62772;48.646;8.906;2024-02-26T18:58:53;94939.16;;;8.73;100.00
4598;BME280;62772;48.646;8.906;2024-02-26T19:03:54;94955.81;;;8.95;100.00
4598;BME280;62772;48.646;8.906;2024-02-26T19:08:54;94965.78;;;8.85;100.00
4598;BME280;62772;48.646;8.906;2024-02-26T19:13:55;94963.44;;;8.71;100.00
4598;BME280;62772;48.646;8.906;2024-02-26T19:18:57;94975.06;;;8.55;100.00
4598;BME280;62772;48.646;8.906;2024-02-26T19:23:57;94979.34;;;8.47;100.00
4598;BME280;62772;48.646;8.906;2024-02-26T19:28:58;94979.50;;;8.63;100.00
4598;BME280;62772;48.646;8.906;2024-02-26T19:33:58;94981.25;;;8.59;100.00
4598;BME280;62772;48.646;8.906;2024-02-26T19:38:59;94985.47;;;8.26;100.00
4598;BME280;62772;48.646;8.906;2024-02-26T19:43:59;94996.75;;;8.44;100.00
4598;BME280;62772;48.646;8.906;2024-02-26T19:49:00;95012.28;;;8.21;100.00
4598;BME280;62772;48.646;8.906;2024-02-26T19:54:01;95015.03;;;8.46;100.00
4598;BME280;62772;48.646;8.906;2024-02-26T19:59:04;95024.19;;;8.36;100.00
4598;BME280;62772;48.646;8.906;2024-02-26T20:04:04;95020.38;;;8.46;100.00
4598;BME280;62772;48.646;8.906;2024-02-26T20:09:08;95025.25;;;8.23;100.00
4598;BME280;62772;48.646;8.906;2024-02-26T20:14:08;95035.28;;;8.17;100.00
4598;BME280;62772;48.646;8.906;2024-02-26T20:19:11;95037.88;;;8.05;100.00
4598;BME280;62772;48.646;8.906;2024-02-26T20:24:13;95050.59;;;7.78;100.00
4598;BME280;62772;48.646;8.906;2024-02-26T20:29:13;95055.91;;;7.99;100.00
4598;BME280;62772;48.646;8.906;2024-02-26T20:34:15;95060.19;;;7.61;100.00
4598;BME280;62772;48.646;8.906;2024-02-26T20:39:16;95068.06;;;7.49;100.00
4598;BME280;62772;48.646;8.906;2024-02-26T20:44:16;95077.34;;;7.73;100.00
4598;BME280;62772;48.646;8.906;2024-02-26T20:49:17;95090.03;;;7.97;100.00
4598;BME280;62772;48.646;8.906;2024-02-26T20:54:17;95091.88;;;7.75;100.00
4598;BME280;62772;48.646;8.906;2024-02-26T20:59:18;95087.94;;;8.03;100.00
4598;BME280;62772;48.646;8.906;2024-02-26T21:04:18;95090.16;;;8.01;100.00
4598;BME280;62772;48.646;8.906;2024-02-26T21:09:19;95105.31;;;8.00;100.00
4598;BME280;62772;48.646;8.906;2024-02-26T21:14:19;95110.50;;;7.96;100.00
4598;BME280;62772;48.646;8.906;2024-02-26T21:19:20;95111.78;;;7.90;100.00
4598;BME280;62772;48.646;8.906;2024-02-26T21:24:20;95126.84;;;7.86;100.00
4598;BME280;62772;48.646;8.906;2024-02-26T21:29:21;95143.19;;;7.67;100.00
4598;BME280;62772;48.646;8.906;2024-02-26T21:34:23;95168.81;;;7.72;100.00
4598;BME280;62772;48.646;8.906;2024-02-26T21:39:24;95174.63;;;7.56;100.00
4598;BME280;62772;48.646;8.906;2024-02-26T21:44:24;95181.94;;;7.68;100.00
4598;BME280;62772;48.646;8.906;2024-02-26T21:49:25;95200.84;;;7.67;100.00
4598;BME280;62772;48.646;8.906;2024-02-26T21:54:26;95207.09;;;7.71;100.00
4598;BME280;62772;48.646;8.906;2024-02-26T21:59:26;95203.22;;;7.59;100.00
4598;BME280;62772;48.646;8.906;2024-02-26T22:04:27;95204.16;;;7.63;100.00
4598;BME280;62772;48.646;8.906;2024-02-26T22:09:27;95203.56;;;7.49;100.00
4598;BME280;62772;48.646;8.906;2024-02-26T22:14:28;95207.84;;;7.15;100.00
4598;BME280;62772;48.646;8.906;2024-02-26T22:19:28;95202.66;;;7.45;100.00
4598;BME280;62772;48.646;8.906;2024-02-26T22:24:29;95201.28;;;7.30;100.00
4598;BME280;62772;48.646;8.906;2024-02-26T22:29:29;95209.69;;;7.41;100.00
4598;BME280;62772;48.646;8.906;2024-02-26T22:34:30;95217.66;;;7.41;100.00
4598;BME280;62772;48.646;8.906;2024-02-26T22:39:30;95220.34;;;7.32;100.00
4598;BME280;62772;48.646;8.906;2024-02-26T22:44:31;95234.38;;;7.33;100.00
4598;BME280;62772;48.646;8.906;2024-02-26T22:49:32;95228.63;;;7.31;100.00
4598;BME280;62772;48.646;8.906;2024-02-26T22:54:37;95231.25;;;7.39;100.00
4598;BME280;62772;48.646;8.906;2024-02-26T22:59:37;95240.66;;;7.02;100.00
4598;BME280;62772;48.646;8.906;2024-02-26T23:04:39;95238.47;;;6.78;100.00
4598;BME280;62772;48.646;8.906;2024-02-26T23:09:40;95253.44;;;7.00;100.00
4598;BME280;62772;48.646;8.906;2024-02-26T23:14:42;95257.22;;;6.99;100.00
4598;BME280;62772;48.646;8.906;2024-02-26T23:19:42;95258.28;;;7.33;100.00
4598;BME280;62772;48.646;8.906;2024-02-26T23:24:43;95265.47;;;7.23;100.00
4598;BME280;62772;48.646;8.906;2024-02-26T23:29:43;95264.41;;;7.07;100.00
4598;BME280;62772;48.646;8.906;2024-02-26T23:34:43;95260.34;;;7.27;100.00
4598;BME280;62772;48.646;8.906;2024-02-26T23:39:46;95269.22;;;7.14;100.00
4598;BME280;62772;48.646;8.906;2024-02-26T23:44:46;95271.75;;;7.10;100.00
4598;BME280;62772;48.646;8.906;2024-02-26T23:49:47;95259.88;;;7.16;100.00
4598;BME280;62772;48.646;8.906;2024-02-26T23:54:47;95271.25;;;6.99;100.00
4598;BME280;62772;48.646;8.906;2024-02-26T23:59:48;95274.72;;;7.08;100.00
